Time;durP1;ratioP1;P1;durP2;ratioP2;P2;SDS_P1;SDS_P2;PMS_P1;PMS_P2;Temp;Humidity;BMP_temperature;BMP_pressure;BME280_temperature;BME280_humidity;BME280_pressure;Samples;Min_cycle;Max_cycle;Signal;HPM_P1;HPM_P2
2023/02/07 00:01:15;;;;;;;;;;;;;;;-5.78;68.44;101520.78;4985970;28;19929;-66
2023/02/07 00:03:40;;;;;;;;;;;;;;;-5.71;68.25;101526.44;4984003;28;19956;-66
2023/02/07 00:06:09;;;;;;;;;;;;;;;-5.74;68.16;101522.19;4967872;28;19930;-66
2023/02/07 00:08:35;;;;;;;;;;;;;;;-5.77;68.42;101521.63;4982635;28;19929;-66
2023/02/07 00:11:03;;;;;;;;;;;;;;;-5.70;68.35;101514.81;4986552;28;19968;-66
2023/02/07 00:13:28;;;;;;;;;;;;;;;-5.72;68.43;101517.59;4968202;28;19984;-66
2023/02/07 00:15:54;;;;;;;;;;;;;;;-5.76;68.70;101518.81;4984595;28;20353;-67
2023/02/07 00:18:20;;;;;;;;;;;;;;;-5.66;68.40;101520.75;4982216;28;20368;-67
2023/02/07 00:20:55;;;;;;;;;;;;;;;-5.58;68.31;101528.94;4969099;28;19976;-67
2023/02/07 00:23:22;;;;;;;;;;;;;;;-5.62;67.62;101527.50;4985932;28;19980;-66
2023/02/07 00:25:48;;;;;;;;;;;;;;;-5.69;67.69;101527.16;4983558;28;19984;-66
2023/02/07 00:28:14;;;;;;;;;;;;;;;-5.66;67.33;101532.25;4985402;28;19934;-66
2023/02/07 00:30:40;;;;;;;;;;;;;;;-5.62;67.24;101539.03;4969200;28;20020;-66
2023/02/07 00:33:05;;;;;;;;;;;;;;;-5.60;67.40;101537.09;4964781;28;20283;-66
2023/02/07 00:35:31;;;;;;;;;;;;;;;-5.71;67.48;101535.28;4982136;28;20301;-68
2023/02/07 00:37:57;;;;;;;;;;;;;;;-5.70;67.49;101537.00;4983910;28;20301;-66
2023/02/07 00:40:24;;;;;;;;;;;;;;;-5.64;67.53;101537.47;4965411;28;19936;-66
2023/02/07 00:42:50;;;;;;;;;;;;;;;-5.67;67.37;101529.72;4967046;28;19929;-67
2023/02/07 00:45:16;;;;;;;;;;;;;;;-5.65;67.45;101528.59;4979101;28;19937;-66
2023/02/07 00:47:42;;;;;;;;;;;;;;;-5.67;67.29;101541.22;4965483;28;20279;-66
2023/02/07 00:50:08;;;;;;;;;;;;;;;-5.64;67.36;101546.28;4965292;28;19980;-66
2023/02/07 00:52:33;;;;;;;;;;;;;;;-5.64;67.55;101538.28;4980176;28;19961;-67
2023/02/07 00:54:59;;;;;;;;;;;;;;;-5.62;67.36;101547.03;4984644;28;19929;-66
2023/02/07 00:57:26;;;;;;;;;;;;;;;-5.63;67.50;101539.97;4985021;28;19988;-66
2023/02/07 00:59:52;;;;;;;;;;;;;;;-5.68;67.49;101542.19;4968525;28;19937;-66
2023/02/07 01:02:18;;;;;;;;;;;;;;;-5.74;67.43;101551.53;4967141;28;19929;-66
2023/02/07 01:04:43;;;;;;;;;;;;;;;-5.84;67.52;101554.09;4968385;28;19934;-66
2023/02/07 01:07:09;;;;;;;;;;;;;;;-5.84;67.79;101562.09;4963747;28;19930;-66
2023/02/07 01:09:35;;;;;;;;;;;;;;;-5.79;67.50;101552.84;4968054;28;19929;-66
2023/02/07 01:12:00;;;;;;;;;;;;;;;-5.85;67.63;101559.56;4981983;28;19929;-66
2023/02/07 01:14:28;;;;;;;;;;;;;;;-5.88;67.63;101560.66;4983225;28;19944;-66
2023/02/07 01:16:53;;;;;;;;;;;;;;;-5.94;67.85;101566.44;4983469;28;19929;-66
2023/02/07 01:19:19;;;;;;;;;;;;;;;-5.91;67.86;101570.69;4966003;28;19937;-66
2023/02/07 01:21:45;;;;;;;;;;;;;;;-5.93;67.90;101568.16;4982417;28;19934;-66
2023/02/07 01:24:11;;;;;;;;;;;;;;;-5.88;67.42;101571.31;4969311;28;19952;-66
2023/02/07 01:26:37;;;;;;;;;;;;;;;-5.88;67.17;101557.97;4984046;28;19985;-66
2023/02/07 01:29:03;;;;;;;;;;;;;;;-5.78;66.62;101565.22;4983598;28;19929;-67
2023/02/07 01:31:30;;;;;;;;;;;;;;;-5.75;66.22;101568.47;4966050;28;19933;-66
2023/02/07 01:33:57;;;;;;;;;;;;;;;-5.77;66.04;101569.59;4983893;28;19968;-66
2023/02/07 01:36:24;;;;;;;;;;;;;;;-5.84;66.27;101571.91;4965357;28;20434;-67
2023/02/07 01:38:50;;;;;;;;;;;;;;;-5.86;66.08;101571.16;4981490;28;19957;-67
2023/02/07 01:41:16;;;;;;;;;;;;;;;-5.90;66.50;101581.25;4981196;28;19941;-67
2023/02/07 01:43:55;;;;;;;;;;;;;;;-5.90;66.43;101583.91;4966921;28;19934;-70
2023/02/07 01:46:21;;;;;;;;;;;;;;;-5.96;66.78;101572.88;4954141;28;19933;-67
2023/02/07 01:48:48;;;;;;;;;;;;;;;-5.97;66.74;101569.34;4988856;28;19930;-67
2023/02/07 01:51:15;;;;;;;;;;;;;;;-5.93;66.54;101577.97;4968346;28;20393;-67
2023/02/07 01:53:41;;;;;;;;;;;;;;;-5.88;66.22;101581.97;4987831;28;19929;-66
2023/02/07 01:56:09;;;;;;;;;;;;;;;-5.87;66.37;101578.31;4967927;28;20082;-66
2023/02/07 01:58:35;;;;;;;;;;;;;;;-5.96;66.34;101586.22;4968940;28;19929;-66
2023/02/07 02:01:05;;;;;;;;;;;;;;;-5.98;66.69;101591.66;4982859;28;19934;-67
2023/02/07 02:03:31;;;;;;;;;;;;;;;-5.95;67.04;101595.91;4986800;28;19929;-66
2023/02/07 02:05:59;;;;;;;;;;;;;;;-5.96;67.14;101610.19;4968000;28;19997;-66
2023/02/07 02:08:25;;;;;;;;;;;;;;;-5.96;67.13;101610.19;4987273;28;19977;-66
2023/02/07 02:11:01;;;;;;;;;;;;;;;-5.92;67.14;101615.16;4985631;28;20364;-66
2023/02/07 02:13:29;;;;;;;;;;;;;;;-5.88;66.87;101613.94;4985167;28;19952;-66
2023/02/07 02:16:00;;;;;;;;;;;;;;;-5.92;67.07;101608.97;4967254;28;20191;-66
2023/02/07 02:18:42;;;;;;;;;;;;;;;-5.91;67.07;101600.88;4969089;28;19929;-66
2023/02/07 02:21:25;;;;;;;;;;;;;;;-5.81;67.18;101608.97;4987285;28;19937;-66
2023/02/07 02:24:03;;;;;;;;;;;;;;;-5.72;66.77;101602.03;4985677;28;20021;-66
2023/02/07 02:26:48;;;;;;;;;;;;;;;-5.65;66.46;101605.06;4966658;28;20000;-66
2023/02/07 02:29:23;;;;;;;;;;;;;;;-5.70;66.30;101613.44;4968744;28;20015;-66
2023/02/07 02:32:01;;;;;;;;;;;;;;;-5.71;66.47;101609.06;4969559;28;20036;-66
2023/02/07 02:34:31;;;;;;;;;;;;;;;-5.74;67.05;101615.47;4970851;28;19929;-66
2023/02/07 02:37:01;;;;;;;;;;;;;;;-5.63;66.88;101617.28;4972010;28;19936;-66
2023/02/07 02:39:31;;;;;;;;;;;;;;;-5.53;66.48;101624.53;4970080;28;20467;-67
2023/02/07 02:41:59;;;;;;;;;;;;;;;-5.57;66.27;101627.47;4968022;28;19930;-67
2023/02/07 02:44:28;;;;;;;;;;;;;;;-5.59;66.08;101624.09;4986980;28;19945;-66
2023/02/07 02:46:54;;;;;;;;;;;;;;;-5.67;66.17;101628.34;4971588;28;19930;-67
2023/02/07 02:49:20;;;;;;;;;;;;;;;-5.71;66.09;101631.22;4983412;28;19936;-66
2023/02/07 02:51:50;;;;;;;;;;;;;;;-5.80;66.22;101642.63;4966221;28;19934;-66
2023/02/07 02:54:36;;;;;;;;;;;;;;;-5.82;66.35;101649.03;4986341;28;19933;-66
2023/02/07 02:57:26;;;;;;;;;;;;;;;-5.76;66.21;101645.91;4967626;28;19951;-66
2023/02/07 03:00:14;;;;;;;;;;;;;;;-5.71;65.95;101647.22;4966473;28;19980;-66
2023/02/07 03:02:46;;;;;;;;;;;;;;;-5.71;65.77;101643.72;4968586;28;19937;-66
2023/02/07 03:05:32;;;;;;;;;;;;;;;-5.70;65.94;101645.41;4966244;28;19930;-67
2023/02/07 03:08:03;;;;;;;;;;;;;;;-5.69;65.96;101652.44;4947849;28;19934;-66
2023/02/07 03:10:37;;;;;;;;;;;;;;;-5.63;66.23;101643.94;4965642;28;19930;-66
2023/02/07 03:13:08;;;;;;;;;;;;;;;-5.61;65.98;101650.03;4964105;28;19929;-66
2023/02/07 03:15:41;;;;;;;;;;;;;;;-5.64;65.89;101660.91;4965041;28;19934;-66
2023/02/07 03:18:09;;;;;;;;;;;;;;;-5.65;66.15;101661.88;4964712;28;20086;-66
2023/02/07 03:20:37;;;;;;;;;;;;;;;-5.62;66.15;101659.00;4964604;28;19934;-66
2023/02/07 03:23:05;;;;;;;;;;;;;;;-5.59;66.01;101665.88;4966465;28;20484;-66
2023/02/07 03:25:32;;;;;;;;;;;;;;;-5.55;66.18;101668.19;4964427;28;20336;-66
2023/02/07 03:27:58;;;;;;;;;;;;;;;-5.51;66.10;101678.59;4965447;28;19930;-67
2023/02/07 03:30:27;;;;;;;;;;;;;;;-5.51;65.92;101690.13;4964807;28;19980;-67
2023/02/07 03:32:56;;;;;;;;;;;;;;;-5.45;65.67;101694.13;4967296;28;20353;-66
2023/02/07 03:35:24;;;;;;;;;;;;;;;-5.41;65.51;101703.56;4966395;28;19930;-66
2023/02/07 03:37:52;;;;;;;;;;;;;;;-5.45;65.49;101718.13;4967578;28;20382;-66
2023/02/07 03:40:19;;;;;;;;;;;;;;;-5.45;65.05;101708.28;4964853;28;19930;-66
2023/02/07 03:42:47;;;;;;;;;;;;;;;-5.46;65.41;101716.41;4962198;28;20479;-66
2023/02/07 03:45:15;;;;;;;;;;;;;;;-5.46;65.03;101721.75;4968310;28;19937;-66
2023/02/07 03:47:41;;;;;;;;;;;;;;;-5.54;65.39;101719.69;4965671;28;19930;-66
2023/02/07 03:50:07;;;;;;;;;;;;;;;-5.51;65.28;101729.25;4967436;28;19930;-66
2023/02/07 03:52:33;;;;;;;;;;;;;;;-5.45;65.20;101731.44;4967352;28;19956;-67
2023/02/07 03:54:58;;;;;;;;;;;;;;;-5.46;65.17;101735.09;4965996;28;19930;-66
2023/02/07 03:57:25;;;;;;;;;;;;;;;-5.49;65.09;101751.31;4962945;28;20329;-66
2023/02/07 03:59:52;;;;;;;;;;;;;;;-5.37;65.21;101754.84;4984337;28;20471;-67
2023/02/07 04:02:17;;;;;;;;;;;;;;;-5.25;64.90;101750.34;4967724;28;20401;-67
2023/02/07 04:04:43;;;;;;;;;;;;;;;-5.31;64.65;101747.19;4986767;28;19941;-67
2023/02/07 04:07:09;;;;;;;;;;;;;;;-5.41;64.72;101747.06;4983525;28;19976;-66
2023/02/07 04:09:36;;;;;;;;;;;;;;;-5.39;64.86;101749.63;4984206;28;19957;-67
2023/02/07 04:12:01;;;;;;;;;;;;;;;-5.39;64.80;101757.63;4984543;28;19930;-67
2023/02/07 04:14:29;;;;;;;;;;;;;;;-5.42;64.89;101755.19;4970646;28;19937;-66
2023/02/07 04:16:56;;;;;;;;;;;;;;;-5.38;64.78;101761.97;4967478;28;20440;-66
2023/02/07 04:19:22;;;;;;;;;;;;;;;-5.41;64.71;101755.06;4966954;28;20029;-66
2023/02/07 04:21:48;;;;;;;;;;;;;;;-5.43;64.83;101757.00;4983878;28;20032;-66
2023/02/07 04:24:13;;;;;;;;;;;;;;;-5.46;65.13;101767.09;4984242;28;20039;-66
2023/02/07 04:26:39;;;;;;;;;;;;;;;-5.42;64.99;101761.34;4984369;28;19934;-67
2023/02/07 04:29:05;;;;;;;;;;;;;;;-5.33;65.11;101767.78;4982779;28;19992;-67
2023/02/07 04:31:32;;;;;;;;;;;;;;;-5.31;64.90;101775.69;4966211;28;19929;-66
2023/02/07 04:33:58;;;;;;;;;;;;;;;-5.34;64.93;101787.44;4985754;28;19984;-67
2023/02/07 04:36:24;;;;;;;;;;;;;;;-5.34;64.71;101786.59;4984373;28;20293;-66
2023/02/07 04:38:50;;;;;;;;;;;;;;;-5.37;64.97;101777.00;4986690;28;19984;-67
2023/02/07 04:41:15;;;;;;;;;;;;;;;-5.36;64.98;101783.19;4968640;28;19957;-67
2023/02/07 04:43:41;;;;;;;;;;;;;;;-5.35;65.07;101790.22;4968324;28;19930;-68
2023/02/07 04:46:08;;;;;;;;;;;;;;;-5.24;64.97;101800.03;4619913;28;10000290;-67
2023/02/07 04:48:36;;;;;;;;;;;;;;;-5.17;64.81;101796.78;4982674;28;20028;-67
2023/02/07 04:51:02;;;;;;;;;;;;;;;-5.11;64.65;101811.44;4982392;28;20033;-67
2023/02/07 04:53:28;;;;;;;;;;;;;;;-5.06;64.40;101813.75;4982164;28;20280;-68
2023/02/07 04:55:53;;;;;;;;;;;;;;;-5.10;64.28;101818.47;4984741;28;20503;-67
2023/02/07 04:58:19;;;;;;;;;;;;;;;-5.14;64.12;101825.03;4974364;28;19930;-67
2023/02/07 05:00:45;;;;;;;;;;;;;;;-5.21;64.24;101831.81;4966436;28;20024;-67
2023/02/07 05:03:11;;;;;;;;;;;;;;;-5.27;64.01;101827.81;4988845;28;20071;-67
2023/02/07 05:05:39;;;;;;;;;;;;;;;-5.31;63.87;101835.22;4968290;28;20020;-67
2023/02/07 05:08:04;;;;;;;;;;;;;;;-5.32;64.15;101827.31;4968357;28;19936;-67
2023/02/07 05:10:30;;;;;;;;;;;;;;;-5.36;64.33;101834.72;4983948;28;19930;-67
2023/02/07 05:12:56;;;;;;;;;;;;;;;-5.39;64.11;101842.09;4984121;28;19929;-67
2023/02/07 05:15:22;;;;;;;;;;;;;;;-5.39;64.18;101848.28;4964312;28;19937;-66
2023/02/07 05:17:48;;;;;;;;;;;;;;;-5.38;64.46;101859.81;4970584;28;20354;-67
2023/02/07 05:20:14;;;;;;;;;;;;;;;-5.37;64.30;101853.50;4987579;28;19999;-66
2023/02/07 05:22:41;;;;;;;;;;;;;;;-5.33;64.38;101858.47;4986985;28;19965;-67
2023/02/07 05:25:07;;;;;;;;;;;;;;;-5.24;64.32;101867.56;4970529;28;19985;-66
2023/02/07 05:27:32;;;;;;;;;;;;;;;-5.16;64.06;101872.31;4958786;28;19934;-67
2023/02/07 05:29:58;;;;;;;;;;;;;;;-5.08;63.92;101869.88;4987486;28;20057;-67
2023/02/07 05:35:08;;;;;;;;;;;;;;;-5.10;63.84;101874.50;4978014;28;19929;-66
2023/02/07 05:37:34;;;;;;;;;;;;;;;-5.11;63.92;101888.81;4960661;28;19929;-67
2023/02/07 05:40:02;;;;;;;;;;;;;;;-5.05;63.58;101893.66;4976902;28;19929;-67
2023/02/07 05:42:29;;;;;;;;;;;;;;;-5.12;63.49;101877.28;4977397;28;20519;-67
2023/02/07 05:44:54;;;;;;;;;;;;;;;-5.16;63.46;101881.16;4978135;28;19966;-67
2023/02/07 05:47:20;;;;;;;;;;;;;;;-5.14;63.70;101883.72;4966740;28;20451;-67
2023/02/07 05:49:46;;;;;;;;;;;;;;;-5.10;63.48;101887.84;4987509;28;19933;-66
2023/02/07 05:52:12;;;;;;;;;;;;;;;-5.12;63.47;101892.47;4986765;28;19937;-66
2023/02/07 05:54:38;;;;;;;;;;;;;;;-5.09;63.70;101889.53;4988544;28;20389;-66
2023/02/07 05:57:07;;;;;;;;;;;;;;;-5.06;63.55;101889.28;4986809;28;20405;-66
2023/02/07 05:59:32;;;;;;;;;;;;;;;-5.15;63.50;101890.00;4956060;28;19929;-66
2023/02/07 06:01:58;;;;;;;;;;;;;;;-5.20;63.76;101889.53;4972996;28;20415;-66
2023/02/07 06:04:24;;;;;;;;;;;;;;;-5.22;63.78;101897.66;4987404;28;19944;-66
2023/02/07 06:06:50;;;;;;;;;;;;;;;-5.21;63.65;101899.38;4985856;28;20342;-66
2023/02/07 06:09:16;;;;;;;;;;;;;;;-5.18;63.90;101893.78;4988775;28;19976;-66
2023/02/07 06:11:41;;;;;;;;;;;;;;;-5.10;63.46;101898.50;4986833;28;19929;-67
2023/02/07 06:14:08;;;;;;;;;;;;;;;-5.08;63.57;101909.91;4987734;28;19936;-66
2023/02/07 06:16:34;;;;;;;;;;;;;;;-5.15;63.34;101917.53;4985930;28;19937;-66
2023/02/07 06:19:00;;;;;;;;;;;;;;;-5.21;63.31;101911.84;4976192;28;19930;-66
2023/02/07 06:21:26;;;;;;;;;;;;;;;-5.26;63.40;101912.19;4968611;28;19936;-66
2023/02/07 06:23:51;;;;;;;;;;;;;;;-5.23;63.07;101913.78;4988782;28;19934;-66
2023/02/07 06:26:17;;;;;;;;;;;;;;;-5.15;62.95;101925.56;4989365;28;20313;-65
2023/02/07 06:28:43;;;;;;;;;;;;;;;-5.06;62.76;101925.81;4988023;28;19936;-66
2023/02/07 06:31:10;;;;;;;;;;;;;;;-5.04;62.56;101932.72;4987940;28;19954;-66
2023/02/07 06:33:36;;;;;;;;;;;;;;;-4.97;62.55;101927.75;4978881;28;20000;-66
2023/02/07 06:36:01;;;;;;;;;;;;;;;-5.02;62.21;101936.09;4988624;28;19934;-66
2023/02/07 06:38:27;;;;;;;;;;;;;;;-5.08;62.44;101935.72;4984186;28;19936;-67
2023/02/07 06:40:56;;;;;;;;;;;;;;;-5.08;62.39;101946.41;4987887;28;19929;-66
2023/02/07 06:43:22;;;;;;;;;;;;;;;-5.08;62.15;101952.59;4986608;28;19936;-66
2023/02/07 06:45:47;;;;;;;;;;;;;;;-5.14;62.13;101955.75;4986582;28;19929;-66
2023/02/07 06:48:15;;;;;;;;;;;;;;;-5.15;62.34;101952.22;4984665;28;19930;-66
2023/02/07 06:50:40;;;;;;;;;;;;;;;-5.17;62.17;101943.50;4971970;28;19933;-66
2023/02/07 06:53:06;;;;;;;;;;;;;;;-5.08;62.38;101968.63;4971429;28;19936;-66
2023/02/07 06:55:35;;;;;;;;;;;;;;;-5.17;62.41;101967.50;4987930;28;19976;-67
2023/02/07 06:58:01;;;;;;;;;;;;;;;-5.13;62.31;101973.47;4988435;28;20356;-67
2023/02/07 07:00:27;;;;;;;;;;;;;;;-5.10;62.39;101969.69;4985882;28;19929;-66
2023/02/07 07:02:53;;;;;;;;;;;;;;;-5.07;62.45;101964.97;4970894;28;20380;-66
2023/02/07 07:05:20;;;;;;;;;;;;;;;-5.07;62.55;101961.44;4985079;28;19972;-66
2023/02/07 07:07:46;;;;;;;;;;;;;;;-5.03;62.62;101973.59;4987198;28;19984;-67
2023/02/07 07:10:12;;;;;;;;;;;;;;;-5.00;62.26;101979.53;4984757;28;19976;-66
2023/02/07 07:12:38;;;;;;;;;;;;;;;-5.07;62.21;101986.31;4968424;28;19937;-66
2023/02/07 07:15:05;;;;;;;;;;;;;;;-5.08;62.69;101997.97;4985312;28;19930;-66
2023/02/07 07:17:30;;;;;;;;;;;;;;;-5.07;62.57;102001.47;4986880;28;19929;-66
2023/02/07 07:19:56;;;;;;;;;;;;;;;-5.02;62.49;102002.00;4985234;28;19934;-67
2023/02/07 07:22:24;;;;;;;;;;;;;;;-4.96;62.26;102008.69;4985726;28;19933;-67
2023/02/07 07:24:50;;;;;;;;;;;;;;;-5.01;62.22;102003.69;4985570;28;19937;-67
2023/02/07 07:27:16;;;;;;;;;;;;;;;-5.04;62.35;102009.25;4985726;28;19948;-67
2023/02/07 07:29:42;;;;;;;;;;;;;;;-4.98;62.59;102011.44;4986536;28;19952;-67
2023/02/07 07:32:10;;;;;;;;;;;;;;;-4.90;62.42;102005.53;4968617;28;19930;-67
2023/02/07 07:34:36;;;;;;;;;;;;;;;-4.90;62.58;102016.19;4984193;28;19965;-66
2023/02/07 07:37:02;;;;;;;;;;;;;;;-4.93;62.68;102011.94;4989234;28;19960;-66
2023/02/07 07:39:29;;;;;;;;;;;;;;;-4.91;62.55;102006.50;4986224;28;20353;-66
2023/02/07 07:41:55;;;;;;;;;;;;;;;-4.95;62.72;102013.03;4985737;28;20408;-66
2023/02/07 07:44:36;;;;;;;;;;;;;;;-4.88;62.86;102012.44;4971992;28;20036;-66
2023/02/07 07:47:02;;;;;;;;;;;;;;;-4.85;62.77;102017.53;4971292;28;20077;-66
2023/02/07 07:49:27;;;;;;;;;;;;;;;-4.80;62.28;102021.66;4969205;28;20032;-66
2023/02/07 07:51:53;;;;;;;;;;;;;;;-4.77;62.30;102019.63;4987437;28;20312;-66
2023/02/07 07:54:19;;;;;;;;;;;;;;;-4.77;62.12;102014.28;4968203;28;19941;-66
2023/02/07 07:56:46;;;;;;;;;;;;;;;-4.77;62.25;102016.94;4968591;28;20039;-66
2023/02/07 07:59:12;;;;;;;;;;;;;;;-4.81;62.16;102014.63;4987909;28;20020;-66
2023/02/07 08:01:38;;;;;;;;;;;;;;;-4.80;62.44;102021.66;4986261;28;19933;-66
2023/02/07 08:04:04;;;;;;;;;;;;;;;-4.82;62.27;102015.59;4986461;28;19929;-66
2023/02/07 08:06:29;;;;;;;;;;;;;;;-4.87;62.62;102027.50;4986298;28;19929;-66
2023/02/07 08:08:55;;;;;;;;;;;;;;;-4.78;62.62;102020.59;4985380;28;19936;-66
2023/02/07 08:11:22;;;;;;;;;;;;;;;-4.68;62.43;102023.38;4985553;28;19929;-67
2023/02/07 08:13:49;;;;;;;;;;;;;;;-4.60;62.07;102030.81;4969180;28;19930;-67
2023/02/07 08:16:15;;;;;;;;;;;;;;;-4.60;61.99;102030.81;4987240;28;19930;-67
2023/02/07 08:18:41;;;;;;;;;;;;;;;-4.51;61.94;102029.22;4988192;28;20384;-67
2023/02/07 08:21:07;;;;;;;;;;;;;;;-4.43;61.77;102038.34;4986807;28;19930;-66
2023/02/07 08:23:32;;;;;;;;;;;;;;;-4.52;61.74;102038.22;4987180;28;20276;-66
2023/02/07 08:25:58;;;;;;;;;;;;;;;-4.59;62.03;102036.03;4985598;28;20027;-66
2023/02/07 08:28:24;;;;;;;;;;;;;;;-4.52;62.05;102032.88;4986089;28;20425;-66
2023/02/07 08:30:51;;;;;;;;;;;;;;;-4.45;61.81;102034.94;4982071;28;19930;-66
2023/02/07 08:33:17;;;;;;;;;;;;;;;-4.37;61.62;102042.34;4966587;28;19936;-66
2023/02/07 08:35:43;;;;;;;;;;;;;;;-4.39;61.30;102041.63;4971028;28;20308;-66
2023/02/07 08:38:09;;;;;;;;;;;;;;;-4.42;61.17;102039.19;4986420;28;20387;-66
2023/02/07 08:40:35;;;;;;;;;;;;;;;-4.44;61.30;102044.66;4970291;28;19933;-67
2023/02/07 08:43:01;;;;;;;;;;;;;;;-4.41;61.40;102035.56;4987123;28;19976;-67
2023/02/07 08:45:27;;;;;;;;;;;;;;;-4.35;61.25;102034.22;4986844;28;19992;-66
2023/02/07 08:47:54;;;;;;;;;;;;;;;-4.29;61.37;102037.25;4984534;28;19934;-67
2023/02/07 08:50:19;;;;;;;;;;;;;;;-4.28;60.97;102036.28;4967630;28;20029;-67
2023/02/07 08:52:45;;;;;;;;;;;;;;;-4.38;61.18;102037.97;4966375;28;20386;-66
2023/02/07 08:55:11;;;;;;;;;;;;;;;-4.41;61.46;102035.56;4984308;28;20480;-68
2023/02/07 08:57:37;;;;;;;;;;;;;;;-4.32;61.04;102034.81;4985247;28;21310;-67
2023/02/07 09:00:03;;;;;;;;;;;;;;;-4.28;60.58;102035.44;4966947;28;20353;-66
2023/02/07 09:02:29;;;;;;;;;;;;;;;-4.24;60.83;102031.53;4982803;28;19984;-66
2023/02/07 09:04:56;;;;;;;;;;;;;;;-4.12;60.62;102029.72;4981988;28;19930;-67
2023/02/07 09:07:22;;;;;;;;;;;;;;;-3.97;60.13;102024.13;4967329;28;20404;-68
2023/02/07 09:09:48;;;;;;;;;;;;;;;-3.94;59.87;102022.03;4968212;28;19933;-67
2023/02/07 09:12:13;;;;;;;;;;;;;;;-3.90;59.69;102027.97;4966179;28;20040;-66
2023/02/07 09:14:39;;;;;;;;;;;;;;;-3.93;59.66;102033.56;4969915;28;19961;-67
2023/02/07 09:17:06;;;;;;;;;;;;;;;-3.95;59.83;102039.03;4984916;28;19930;-69
2023/02/07 09:19:32;;;;;;;;;;;;;;;-3.83;59.53;102029.16;4968725;28;19929;-67
2023/02/07 09:21:59;;;;;;;;;;;;;;;-3.72;59.20;102031.81;4987571;28;19984;-66
2023/02/07 09:24:25;;;;;;;;;;;;;;;-3.62;59.07;102034.56;4985103;28;19941;-67
2023/02/07 09:26:51;;;;;;;;;;;;;;;-3.55;58.69;102034.94;4969305;28;19976;-67
2023/02/07 09:29:17;;;;;;;;;;;;;;;-3.47;58.73;102039.63;4986365;28;20505;-67
2023/02/07 09:31:42;;;;;;;;;;;;;;;-3.47;58.58;102043.19;4983821;28;19929;-67
2023/02/07 09:34:08;;;;;;;;;;;;;;;-3.43;58.54;102046.47;4984959;28;20379;-67
2023/02/07 09:36:34;;;;;;;;;;;;;;;-3.29;58.42;102047.97;4985103;28;19930;-67
2023/02/07 09:39:01;;;;;;;;;;;;;;;-3.24;57.96;102055.63;4970242;28;19957;-67
2023/02/07 09:41:32;;;;;;;;;;;;;;;-3.25;58.02;102061.97;4969619;28;19929;-67
2023/02/07 09:44:03;;;;;;;;;;;;;;;-3.29;57.97;102053.31;4966953;28;20028;-67
2023/02/07 09:46:32;;;;;;;;;;;;;;;-3.45;58.05;102059.94;4986124;28;19933;-66
2023/02/07 09:49:03;;;;;;;;;;;;;;;-3.48;58.07;102070.91;4967860;28;20284;-66
2023/02/07 09:51:30;;;;;;;;;;;;;;;-3.42;58.19;102067.72;4984195;28;19937;-66
2023/02/07 09:53:59;;;;;;;;;;;;;;;-3.50;57.92;102062.16;4985397;28;19942;-67
2023/02/07 09:56:28;;;;;;;;;;;;;;;-3.50;58.22;102069.31;4984072;28;20467;-67
2023/02/07 09:58:59;;;;;;;;;;;;;;;-3.49;57.96;102063.00;4983615;28;20016;-67
2023/02/07 10:01:26;;;;;;;;;;;;;;;-3.61;58.28;102059.50;4984405;28;19953;-67
2023/02/07 10:04:04;;;;;;;;;;;;;;;-3.53;58.16;102053.53;4969111;28;20496;-66
2023/02/07 10:06:30;;;;;;;;;;;;;;;-3.39;57.95;102060.41;4992732;28;19930;-67
2023/02/07 10:08:58;;;;;;;;;;;;;;;-3.36;57.72;102070.84;4990573;28;19933;-67
2023/02/07 10:11:34;;;;;;;;;;;;;;;-3.42;57.71;102070.38;4957441;28;19933;-66
2023/02/07 10:14:17;;;;;;;;;;;;;;;-3.64;58.06;102071.31;4987680;28;19929;-67
2023/02/07 10:16:51;;;;;;;;;;;;;;;-3.72;58.52;102074.59;4988227;28;19977;-67
2023/02/07 10:19:25;;;;;;;;;;;;;;;-3.67;58.38;102068.88;4986867;28;19930;-67
2023/02/07 10:21:57;;;;;;;;;;;;;;;-3.61;58.28;102060.34;4971140;28;19973;-66
2023/02/07 10:24:32;;;;;;;;;;;;;;;-3.57;57.86;102068.97;4986776;28;19936;-66
2023/02/07 10:27:04;;;;;;;;;;;;;;;-3.50;57.93;102077.34;4974520;28;19930;-66
2023/02/07 10:29:37;;;;;;;;;;;;;;;-3.48;57.66;102070.03;4986410;28;19929;-66
2023/02/07 10:32:10;;;;;;;;;;;;;;;-3.49;57.66;102066.53;4985835;28;19929;-66
2023/02/07 10:34:38;;;;;;;;;;;;;;;-3.44;57.74;102067.00;4979461;28;19940;-66
2023/02/07 10:37:14;;;;;;;;;;;;;;;-3.38;57.42;102064.78;4986731;28;19930;-66
2023/02/07 10:39:42;;;;;;;;;;;;;;;-3.37;57.23;102059.31;4987609;28;20334;-66
2023/02/07 10:42:13;;;;;;;;;;;;;;;-3.44;57.47;102069.66;4989253;28;19939;-67
2023/02/07 10:44:39;;;;;;;;;;;;;;;-3.54;57.84;102070.56;4988841;28;19934;-67
2023/02/07 10:47:08;;;;;;;;;;;;;;;-3.60;57.90;102069.22;4988632;28;19955;-67
2023/02/07 10:49:36;;;;;;;;;;;;;;;-3.73;58.10;102070.22;4985716;28;20533;-67
2023/02/07 10:52:05;;;;;;;;;;;;;;;-3.75;58.02;102072.19;4970672;28;19944;-66
2023/02/07 10:54:47;;;;;;;;;;;;;;;-3.71;58.02;102065.59;4972409;28;19936;-66
2023/02/07 10:57:17;;;;;;;;;;;;;;;-3.77;57.90;102078.63;4989196;28;19929;-66
2023/02/07 10:59:46;;;;;;;;;;;;;;;-3.68;58.14;102069.00;4987588;28;20317;-66
2023/02/07 11:02:43;;;;;;;;;;;;;;;-3.74;57.72;102057.84;4973131;28;19930;-66
2023/02/07 11:05:29;;;;;;;;;;;;;;;-3.65;57.72;102068.78;4964761;28;20342;-66
2023/02/07 11:07:56;;;;;;;;;;;;;;;-3.71;57.67;102064.78;4968700;28;20412;-67
2023/02/07 11:10:22;;;;;;;;;;;;;;;-3.76;57.94;102075.84;4985454;28;19929;-66
2023/02/07 11:12:52;;;;;;;;;;;;;;;-3.67;57.64;102076.03;4967487;28;19956;-66
2023/02/07 11:15:19;;;;;;;;;;;;;;;-3.64;57.58;102076.66;4988010;28;20408;-66
2023/02/07 11:17:46;;;;;;;;;;;;;;;-3.67;57.69;102076.91;4986655;28;19945;-66
2023/02/07 11:20:18;;;;;;;;;;;;;;;-3.56;57.88;102074.22;4986493;28;20000;-66
2023/02/07 11:22:44;;;;;;;;;;;;;;;-3.34;57.41;102077.78;4955468;28;19929;-66
2023/02/07 11:25:09;;;;;;;;;;;;;;;-3.34;57.27;102085.81;4985697;28;19936;-66
2023/02/07 11:27:36;;;;;;;;;;;;;;;-3.33;56.73;102089.34;4987848;28;19933;-66
2023/02/07 11:30:06;;;;;;;;;;;;;;;-3.43;57.03;102090.09;4988290;28;19960;-66
2023/02/07 11:32:31;;;;;;;;;;;;;;;-3.56;57.26;102086.72;4984043;28;20373;-66
2023/02/07 11:35:00;;;;;;;;;;;;;;;-3.58;57.58;102088.69;4984891;28;20036;-66
2023/02/07 11:37:27;;;;;;;;;;;;;;;-3.72;57.60;102087.97;4970345;28;20447;-66
2023/02/07 11:39:54;;;;;;;;;;;;;;;-3.66;57.81;102089.31;4987540;28;19934;-66
2023/02/07 11:42:21;;;;;;;;;;;;;;;-3.58;57.27;102080.66;4969705;28;20390;-66
2023/02/07 11:44:47;;;;;;;;;;;;;;;-3.62;57.31;102080.03;4986357;28;19933;-66
2023/02/07 11:47:16;;;;;;;;;;;;;;;-3.65;57.62;102090.16;4967506;28;20337;-66
2023/02/07 11:49:44;;;;;;;;;;;;;;;-3.68;57.46;102082.38;4985939;28;20485;-66
2023/02/07 11:52:10;;;;;;;;;;;;;;;-3.66;57.63;102091.97;4970210;28;19951;-67
2023/02/07 11:54:38;;;;;;;;;;;;;;;-3.75;57.46;102090.91;4986098;28;20420;-67
2023/02/07 11:57:05;;;;;;;;;;;;;;;-3.85;57.76;102093.47;4967671;28;19933;-67
2023/02/07 11:59:34;;;;;;;;;;;;;;;-3.93;58.07;102093.22;4985378;28;19930;-66
2023/02/07 12:02:08;;;;;;;;;;;;;;;-3.94;58.27;102098.72;4985430;28;19992;-67
2023/02/07 12:04:36;;;;;;;;;;;;;;;-3.89;58.34;102100.03;4985095;28;20536;-67
2023/02/07 12:07:05;;;;;;;;;;;;;;;-3.93;58.44;102100.41;4986448;28;20483;-67
2023/02/07 12:09:33;;;;;;;;;;;;;;;-3.92;58.26;102097.59;4985363;28;20028;-67
2023/02/07 12:12:02;;;;;;;;;;;;;;;-3.87;58.21;102098.09;4966091;28;19965;-67
2023/02/07 12:14:31;;;;;;;;;;;;;;;-3.75;57.92;102106.09;4968412;28;19937;-67
2023/02/07 12:16:58;;;;;;;;;;;;;;;-3.83;57.90;102104.03;4968059;28;20351;-67
2023/02/07 12:19:28;;;;;;;;;;;;;;;-4.00;58.14;102098.19;4968796;28;19938;-66
2023/02/07 12:21:59;;;;;;;;;;;;;;;-3.96;58.31;102092.63;4986222;28;19948;-67
2023/02/07 12:24:28;;;;;;;;;;;;;;;-3.91;58.29;102087.75;4986036;28;20324;-67
2023/02/07 12:26:58;;;;;;;;;;;;;;;-3.87;57.92;102087.41;4988684;28;20015;-66
2023/02/07 12:29:30;;;;;;;;;;;;;;;-3.86;58.01;102082.88;4985009;28;19929;-67
2023/02/07 12:32:01;;;;;;;;;;;;;;;-3.87;58.34;102094.56;4966799;28;19929;-67
2023/02/07 12:34:31;;;;;;;;;;;;;;;-3.87;58.24;102097.22;4949780;28;20041;-66
2023/02/07 12:37:01;;;;;;;;;;;;;;;-3.87;58.18;102099.91;4985486;28;19940;-66
2023/02/07 12:39:32;;;;;;;;;;;;;;;-3.88;57.91;102101.75;4983675;28;19937;-67
2023/02/07 12:42:04;;;;;;;;;;;;;;;-3.93;58.11;102109.25;4985255;28;19964;-67